createdAt,value
2017-04-02T00:00:27.275Z,0.00
2017-04-02T00:01:15.753Z,0.00
2017-04-02T00:02:15.751Z,0.00
2017-04-02T00:03:05.014Z,0.00
2017-04-02T00:03:53.784Z,0.00
2017-04-02T00:04:54.076Z,0.00
2017-04-02T00:05:48.881Z,0.00
2017-04-02T00:06:43.944Z,0.00
2017-04-02T00:07:32.929Z,0.00
2017-04-02T00:08:27.633Z,0.00
2017-04-02T00:09:16.007Z,0.00
2017-04-02T00:10:16.076Z,0.00
2017-04-02T00:11:10.551Z,0.00
2017-04-02T00:12:04.146Z,0.00
2017-04-02T00:12:53.344Z,0.00
2017-04-02T00:13:47.233Z,0.00
2017-04-02T00:14:47.290Z,0.00
2017-04-02T00:15:48.287Z,0.00
2017-04-02T00:16:37.364Z,0.00
2017-04-02T00:17:25.321Z,0.00
2017-04-02T00:18:20.445Z,0.00
2017-04-02T00:19:15.440Z,0.00
2017-04-02T00:20:09.489Z,0.00
2017-04-02T00:20:58.492Z,0.00
2017-04-02T00:21:52.576Z,0.00
2017-04-02T00:22:41.590Z,0.00
2017-04-02T00:23:35.649Z,0.00
2017-04-02T00:24:30.245Z,0.00
2017-04-02T00:25:23.712Z,0.00
2017-04-02T00:26:23.735Z,0.00
2017-04-02T00:27:23.825Z,0.00
2017-04-02T00:28:18.795Z,0.00
2017-04-02T00:29:13.063Z,0.00
2017-04-02T00:30:12.930Z,0.00
2017-04-02T00:31:12.906Z,0.00
2017-04-02T00:32:08.270Z,0.00
2017-04-02T00:33:01.955Z,0.00
2017-04-02T00:34:02.001Z,0.00
2017-04-02T00:35:02.030Z,0.00
2017-04-02T00:35:51.063Z,0.00
2017-04-02T00:36:45.069Z,0.00
2017-04-02T00:37:45.088Z,0.00
2017-04-02T00:38:45.154Z,0.00
2017-04-02T00:39:45.185Z,0.00
2017-04-02T00:40:45.206Z,0.00
2017-04-02T00:41:40.301Z,0.00
2017-04-02T00:42:40.329Z,0.00
2017-04-02T00:43:40.331Z,0.00
2017-04-02T00:44:34.406Z,0.00
2017-04-02T00:45:29.472Z,0.00
2017-04-02T00:46:23.523Z,0.00
2017-04-02T00:47:11.503Z,0.00
2017-04-02T00:48:12.545Z,0.00
2017-04-02T00:49:00.599Z,0.00
2017-04-02T00:49:48.665Z,0.00
2017-04-02T00:50:37.669Z,0.00
2017-04-02T00:51:26.748Z,0.00
2017-04-02T00:52:15.733Z,0.00
2017-04-02T00:53:10.041Z,0.00
2017-04-02T00:53:58.859Z,0.00
2017-04-02T00:54:46.892Z,0.00
2017-04-02T00:55:40.921Z,0.00
2017-04-02T00:56:35.921Z,0.00
2017-04-02T00:57:23.991Z,0.00
2017-04-02T00:58:18.023Z,0.00
2017-04-02T00:59:12.031Z,0.00
2017-04-02T01:00:12.728Z,0.00
2017-04-02T01:01:12.147Z,0.00
2017-04-02T01:02:07.246Z,0.00
2017-04-02T01:03:01.243Z,0.00
2017-04-02T01:04:01.279Z,0.00
2017-04-02T01:04:56.306Z,0.00
2017-04-02T01:05:51.335Z,0.00
2017-04-02T01:06:51.331Z,0.00
2017-04-02T01:07:46.415Z,0.00
2017-04-02T01:08:41.421Z,0.00
2017-04-02T01:09:41.450Z,0.00
2017-04-02T01:10:35.451Z,0.00
2017-04-02T01:11:29.539Z,0.00
2017-04-02T01:12:18.571Z,0.00
2017-04-02T01:13:13.255Z,0.00
2017-04-02T01:14:13.327Z,0.00
2017-04-02T01:15:13.264Z,0.00
2017-04-02T01:16:06.725Z,0.00
2017-04-02T01:17:00.812Z,0.00
2017-04-02T01:17:49.797Z,0.00
2017-04-02T01:18:38.923Z,0.00
2017-04-02T01:19:34.622Z,0.00
2017-04-02T01:20:28.924Z,0.00
2017-04-02T01:21:17.967Z,0.00
2017-04-02T01:22:07.007Z,0.00
2017-04-02T01:23:01.074Z,0.00
2017-04-02T01:24:01.040Z,0.00
2017-04-02T01:24:56.081Z,0.00
2017-04-02T01:25:50.131Z,0.00
2017-04-02T01:26:38.166Z,0.00
2017-04-02T01:27:27.297Z,0.00
2017-04-02T01:28:22.263Z,0.00
2017-04-02T01:29:10.325Z,0.00
2017-04-02T01:30:05.348Z,0.00
2017-04-02T01:31:00.368Z,0.00
2017-04-02T01:31:49.342Z,0.00
2017-04-02T01:32:37.445Z,0.00
2017-04-02T01:33:32.479Z,0.00
2017-04-02T01:34:26.562Z,0.00
2017-04-02T01:35:16.145Z,0.00
2017-04-02T01:36:03.592Z,0.00
2017-04-02T01:36:51.547Z,0.00
2017-04-02T01:37:40.713Z,0.00
2017-04-02T01:38:29.723Z,0.00
2017-04-02T01:39:18.781Z,0.00
2017-04-02T01:40:12.796Z,0.00
2017-04-02T01:41:07.861Z,0.00
2017-04-02T01:42:07.859Z,0.00
2017-04-02T01:43:01.899Z,0.00
2017-04-02T01:43:50.901Z,0.00
2017-04-02T01:44:44.999Z,0.00
2017-04-02T01:45:39.079Z,0.00
2017-04-02T01:46:39.050Z,0.00
2017-04-02T01:47:33.069Z,0.00
2017-04-02T01:48:21.092Z,0.00
2017-04-02T01:49:15.287Z,0.00
2017-04-02T01:50:10.221Z,0.00
2017-04-02T01:50:59.314Z,0.00
2017-04-02T01:51:48.320Z,0.00
2017-04-02T01:52:48.300Z,0.00
2017-04-02T01:53:38.012Z,0.00
2017-04-02T01:54:31.373Z,0.00
2017-04-02T01:55:20.415Z,0.00
2017-04-02T01:56:09.491Z,0.00
2017-04-02T01:57:04.537Z,0.00
2017-04-02T01:58:04.551Z,0.00
2017-04-02T01:58:53.568Z,0.00
2017-04-02T01:59:41.620Z,0.00
2017-04-02T02:00:29.724Z,0.00
2017-04-02T02:01:17.696Z,0.00
2017-04-02T02:02:17.747Z,0.00
2017-04-02T02:03:12.748Z,0.00
2017-04-02T02:04:06.837Z,0.00
2017-04-02T02:05:06.859Z,0.00
2017-04-02T02:06:07.109Z,0.00
2017-04-02T02:07:02.025Z,0.00
2017-04-02T02:07:56.943Z,0.00
2017-04-02T02:08:44.942Z,0.00
2017-04-02T02:09:33.018Z,0.00
2017-04-02T02:10:22.086Z,0.00
2017-04-02T02:11:17.296Z,0.00
2017-04-02T02:12:06.101Z,0.00
2017-04-02T02:13:00.147Z,0.00
2017-04-02T02:13:54.202Z,0.00
2017-04-02T02:14:54.247Z,0.00
2017-04-02T02:15:54.300Z,0.00
2017-04-02T02:16:42.290Z,0.00
2017-04-02T02:17:30.569Z,0.00
2017-04-02T02:18:19.371Z,0.00
2017-04-02T02:19:14.463Z,0.00
2017-04-02T02:20:08.450Z,0.00
2017-04-02T02:21:08.497Z,0.00
2017-04-02T02:22:03.534Z,0.00
2017-04-02T02:22:58.646Z,0.00
2017-04-02T02:23:52.684Z,0.00
2017-04-02T02:24:46.664Z,0.00
2017-04-02T02:25:46.689Z,0.00
2017-04-02T02:26:41.331Z,0.00
2017-04-02T02:27:41.164Z,0.00
2017-04-02T02:28:29.820Z,0.00
2017-04-02T02:29:19.103Z,0.00
2017-04-02T02:30:19.130Z,0.00
2017-04-02T02:31:12.925Z,0.00
2017-04-02T02:32:00.949Z,0.00
2017-04-02T02:32:49.977Z,0.00
2017-04-02T02:33:38.074Z,0.00
2017-04-02T02:34:27.096Z,0.00
2017-04-02T02:35:22.129Z,0.00
2017-04-02T02:36:23.243Z,0.00
2017-04-02T02:37:11.241Z,0.00
2017-04-02T02:38:00.254Z,0.00
2017-04-02T02:38:54.322Z,0.00
2017-04-02T02:39:43.361Z,0.00
2017-04-02T02:40:32.327Z,0.00
2017-04-02T02:41:21.416Z,0.00
2017-04-02T02:42:16.423Z,0.00
2017-04-02T02:43:10.403Z,0.00
2017-04-02T02:44:11.534Z,0.00
2017-04-02T02:45:12.607Z,0.00
2017-04-02T02:46:12.621Z,0.00
2017-04-02T02:47:18.606Z,0.00
2017-04-02T02:48:06.639Z,0.00
2017-04-02T02:48:55.627Z,0.00
2017-04-02T02:49:50.722Z,0.00
2017-04-02T02:50:39.722Z,0.00
2017-04-02T02:51:34.810Z,0.00
2017-04-02T02:52:34.897Z,0.00
2017-04-02T02:53:28.816Z,0.00
2017-04-02T02:54:28.862Z,0.00
2017-04-02T02:55:23.937Z,0.00
2017-04-02T02:56:23.941Z,0.00
2017-04-02T02:57:18.019Z,0.00
2017-04-02T02:58:18.034Z,0.00
2017-04-02T02:59:13.064Z,0.00
2017-04-02T03:00:08.084Z,0.00
2017-04-02T03:01:08.170Z,0.00
2017-04-02T03:02:03.151Z,0.00
2017-04-02T03:02:58.225Z,0.00
2017-04-02T03:03:58.211Z,0.00
2017-04-02T03:04:53.211Z,0.00
2017-04-02T03:05:48.300Z,0.00
2017-04-02T03:06:49.339Z,0.00
2017-04-02T03:07:49.365Z,0.00
2017-04-02T03:08:49.375Z,0.00
2017-04-02T03:09:45.058Z,0.00
2017-04-02T03:10:38.452Z,0.00
2017-04-02T03:11:38.491Z,0.00
2017-04-02T03:12:33.658Z,0.00
2017-04-02T03:13:33.584Z,0.00
2017-04-02T03:14:28.099Z,0.00
2017-04-02T03:15:28.096Z,0.00
2017-04-02T03:16:22.685Z,0.00
2017-04-02T03:17:17.699Z,0.00
2017-04-02T03:18:17.757Z,0.00
2017-04-02T03:19:12.738Z,0.00
2017-04-02T03:20:07.875Z,0.00
2017-04-02T03:21:08.860Z,0.00
2017-04-02T03:22:08.862Z,0.00
2017-04-02T03:23:08.909Z,0.00
2017-04-02T03:24:03.925Z,0.00
2017-04-02T03:24:58.070Z,0.00
2017-04-02T03:25:58.095Z,0.00
2017-04-02T03:26:52.983Z,0.00
2017-04-02T03:27:53.066Z,0.00
2017-04-02T03:28:53.120Z,0.00
2017-04-02T03:29:53.185Z,0.00
2017-04-02T03:30:47.668Z,0.00
2017-04-02T03:31:47.220Z,0.00
2017-04-02T03:32:42.226Z,0.00
2017-04-02T03:33:42.239Z,0.00
2017-04-02T03:34:42.211Z,0.00
2017-04-02T03:35:42.309Z,0.00
2017-04-02T03:36:36.372Z,0.00
2017-04-02T03:37:36.371Z,0.00
2017-04-02T03:38:31.347Z,0.00
2017-04-02T03:39:31.377Z,0.00
2017-04-02T03:40:25.485Z,0.00
2017-04-02T03:41:25.538Z,0.00
2017-04-02T03:42:20.534Z,0.00
2017-04-02T03:43:20.590Z,0.00
2017-04-02T03:44:20.606Z,0.00
2017-04-02T03:45:20.596Z,0.00
2017-04-02T03:46:14.704Z,0.00
2017-04-02T03:47:14.736Z,0.00
2017-04-02T03:48:09.784Z,0.00
2017-04-02T03:49:04.803Z,0.00
2017-04-02T03:50:05.777Z,0.00
2017-04-02T03:51:05.819Z,0.00
2017-04-02T03:52:00.930Z,0.00
2017-04-02T03:53:06.915Z,0.00
2017-04-02T03:54:01.905Z,0.00
2017-04-02T03:55:02.021Z,0.00
2017-04-02T03:56:02.516Z,0.00
2017-04-02T03:57:03.011Z,0.00
2017-04-02T03:58:04.057Z,0.00
2017-04-02T03:59:04.085Z,0.00
2017-04-02T04:00:04.114Z,0.00
2017-04-02T04:00:59.149Z,0.00
2017-04-02T04:01:53.199Z,0.00
2017-04-02T04:02:53.302Z,0.00
2017-04-02T04:03:48.725Z,0.00
2017-04-02T04:04:48.362Z,0.00
2017-04-02T04:05:42.337Z,0.00
2017-04-02T04:06:42.334Z,0.00
2017-04-02T04:07:37.430Z,0.00
2017-04-02T04:08:32.660Z,0.00
2017-04-02T04:09:32.621Z,0.00
2017-04-02T04:10:27.586Z,0.00
2017-04-02T04:11:27.542Z,0.00
2017-04-02T04:12:27.563Z,0.00
2017-04-02T04:13:27.624Z,0.00
2017-04-02T04:14:21.631Z,0.00
2017-04-02T04:15:21.622Z,0.00
2017-04-02T04:16:16.680Z,0.00
2017-04-02T04:17:11.705Z,0.00
2017-04-02T04:18:12.747Z,0.00
2017-04-02T04:19:12.792Z,0.00
2017-04-02T04:20:12.867Z,0.00
2017-04-02T04:21:07.880Z,0.00
2017-04-02T04:22:09.292Z,0.00
2017-04-02T04:23:07.912Z,0.00
2017-04-02T04:24:01.934Z,0.00
2017-04-02T04:25:02.031Z,0.00
2017-04-02T04:25:51.460Z,0.00
2017-04-02T04:26:39.048Z,0.00
2017-04-02T04:27:39.131Z,0.00
2017-04-02T04:28:34.135Z,0.00
2017-04-02T04:29:40.182Z,0.00
2017-04-02T04:30:34.436Z,0.00
2017-04-02T04:31:34.296Z,0.00
2017-04-02T04:32:29.282Z,0.00
2017-04-02T04:33:29.346Z,0.00
2017-04-02T04:34:29.317Z,0.00
2017-04-02T04:35:35.632Z,0.00
2017-04-02T04:36:30.398Z,0.00
2017-04-02T04:37:30.416Z,0.00
2017-04-02T04:38:25.449Z,0.00
2017-04-02T04:39:20.622Z,0.00
2017-04-02T04:40:21.506Z,0.00
2017-04-02T04:41:16.541Z,0.00
2017-04-02T04:42:05.628Z,0.00
2017-04-02T04:42:54.622Z,0.00
2017-04-02T04:43:43.699Z,0.00
2017-04-02T04:44:32.755Z,0.00
2017-04-02T04:45:20.852Z,0.00
2017-04-02T04:46:14.845Z,0.00
2017-04-02T04:47:14.835Z,0.00
2017-04-02T04:48:09.039Z,0.00
2017-04-02T04:49:09.183Z,0.00
2017-04-02T04:50:03.974Z,0.00
2017-04-02T04:51:03.990Z,0.00
2017-04-02T04:52:04.030Z,0.00
2017-04-02T04:53:04.058Z,0.00
2017-04-02T04:53:58.145Z,0.00
2017-04-02T04:54:58.150Z,0.00
2017-04-02T04:55:53.187Z,0.00
2017-04-02T04:56:48.208Z,0.00
2017-04-02T04:57:48.236Z,0.00
2017-04-02T04:58:43.225Z,0.00
2017-04-02T04:59:38.333Z,0.00
2017-04-02T05:00:32.356Z,0.00
2017-04-02T05:01:33.400Z,0.00
2017-04-02T05:02:28.405Z,0.00
2017-04-02T05:03:28.472Z,0.00
2017-04-02T05:04:28.443Z,0.00
2017-04-02T05:05:28.438Z,0.00
2017-04-02T05:06:28.553Z,0.00
2017-04-02T05:07:28.559Z,0.00
2017-04-02T05:08:28.605Z,0.00
2017-04-02T05:09:23.599Z,0.00
2017-04-02T05:10:17.643Z,0.00
2017-04-02T05:11:18.703Z,0.01
2017-04-02T05:12:19.720Z,0.01
2017-04-02T05:13:19.949Z,0.01
2017-04-02T05:14:19.780Z,0.01
2017-04-02T05:15:19.810Z,0.01
2017-04-02T05:16:19.838Z,0.01
2017-04-02T05:17:15.066Z,0.01
2017-04-02T05:18:08.933Z,0.01
2017-04-02T05:19:02.970Z,0.01
2017-04-02T05:19:56.981Z,0.01
2017-04-02T05:20:57.105Z,0.01
2017-04-02T05:21:52.058Z,0.01
2017-04-02T05:22:47.136Z,0.01
2017-04-02T05:23:41.120Z,0.01
2017-04-02T05:24:41.129Z,0.01
2017-04-02T05:25:36.191Z,0.01
2017-04-02T05:26:42.239Z,0.01
2017-04-02T05:27:36.246Z,0.01
2017-04-02T05:28:24.341Z,0.02
2017-04-02T05:29:12.304Z,0.02
2017-04-02T05:30:01.587Z,0.02
2017-04-02T05:30:49.387Z,0.02
2017-04-02T05:31:49.460Z,0.02
2017-04-02T05:32:44.412Z,0.02
2017-04-02T05:33:39.550Z,0.02
2017-04-02T05:34:39.533Z,0.02
2017-04-02T05:35:34.647Z,0.02
2017-04-02T05:36:29.588Z,0.02
2017-04-02T05:37:23.714Z,0.02
2017-04-02T05:38:23.813Z,0.03
2017-04-02T05:39:19.273Z,0.03
2017-04-02T05:40:19.275Z,0.03
2017-04-02T05:41:13.885Z,0.03
2017-04-02T05:42:02.841Z,0.03
2017-04-02T05:42:51.908Z,0.03
2017-04-02T05:43:39.928Z,0.03
2017-04-02T05:44:27.975Z,0.03
2017-04-02T05:45:16.027Z,0.03
2017-04-02T05:46:04.098Z,0.03
2017-04-02T05:46:58.223Z,0.03
2017-04-02T05:47:47.225Z,0.04
2017-04-02T05:48:47.195Z,0.04
2017-04-02T05:49:36.239Z,0.04
2017-04-02T05:50:24.254Z,0.04
2017-04-02T05:51:13.348Z,0.04
2017-04-02T05:52:01.317Z,0.04
2017-04-02T05:52:50.973Z,0.04
2017-04-02T05:53:38.471Z,0.04
2017-04-02T05:54:26.538Z,0.04
2017-04-02T05:55:15.507Z,0.04
2017-04-02T05:56:09.522Z,0.04
2017-04-02T05:57:04.638Z,0.04
2017-04-02T05:58:04.607Z,0.04
2017-04-02T05:58:59.648Z,0.04
2017-04-02T05:59:54.702Z,0.04
2017-04-02T06:00:48.733Z,0.05
2017-04-02T06:01:43.760Z,0.05
2017-04-02T06:02:44.875Z,0.05
2017-04-02T06:03:44.829Z,0.05
2017-04-02T06:04:44.806Z,0.05
2017-04-02T06:05:33.898Z,0.05
2017-04-02T06:06:23.592Z,0.05
2017-04-02T06:07:17.106Z,0.05
2017-04-02T06:08:11.051Z,0.05
2017-04-02T06:08:59.465Z,0.05
2017-04-02T06:09:53.713Z,0.05
2017-04-02T06:10:53.470Z,0.05
2017-04-02T06:11:42.158Z,0.05
2017-04-02T06:12:36.203Z,0.06
2017-04-02T06:13:25.325Z,0.06
2017-04-02T06:14:14.367Z,0.06
2017-04-02T06:15:09.359Z,0.06
2017-04-02T06:15:57.401Z,0.06
2017-04-02T06:16:52.082Z,0.06
2017-04-02T06:17:46.521Z,0.06
2017-04-02T06:18:46.612Z,0.06
2017-04-02T06:19:46.553Z,0.07
2017-04-02T06:20:46.553Z,0.07
2017-04-02T06:21:46.633Z,0.07
2017-04-02T06:22:46.627Z,0.07
2017-04-02T06:23:46.723Z,0.07
2017-04-02T06:24:46.776Z,0.08
2017-04-02T06:25:46.762Z,0.08
2017-04-02T06:26:46.768Z,0.08
2017-04-02T06:27:46.793Z,0.08
2017-04-02T06:28:46.847Z,0.09
2017-04-02T06:29:46.929Z,0.09
2017-04-02T06:30:46.913Z,0.09
2017-04-02T06:31:52.948Z,0.09
2017-04-02T06:32:47.986Z,0.10
2017-04-02T06:33:42.017Z,0.10
2017-04-02T06:34:42.028Z,0.11
2017-04-02T06:35:37.186Z,0.12
2017-04-02T06:36:31.078Z,0.12
2017-04-02T06:37:31.127Z,0.11
2017-04-02T06:38:25.217Z,0.11
2017-04-02T06:39:20.271Z,0.10
2017-04-02T06:40:21.280Z,0.11
2017-04-02T06:41:21.332Z,0.11
2017-04-02T06:42:21.332Z,0.11
2017-04-02T06:43:15.329Z,0.11
2017-04-02T06:44:15.415Z,0.11
2017-04-02T06:45:10.444Z,0.12
2017-04-02T06:46:00.316Z,0.12
2017-04-02T06:46:47.549Z,0.13
2017-04-02T06:47:36.542Z,0.13
2017-04-02T06:48:25.703Z,0.13
2017-04-02T06:49:26.673Z,0.13
2017-04-02T06:50:14.662Z,0.15
2017-04-02T06:51:08.696Z,0.17
2017-04-02T06:52:09.786Z,0.19
2017-04-02T06:53:10.817Z,0.19
2017-04-02T06:54:05.807Z,0.20
2017-04-02T06:55:05.833Z,0.19
2017-04-02T06:56:05.870Z,0.20
2017-04-02T06:57:05.892Z,0.20
2017-04-02T06:58:11.973Z,0.20
2017-04-02T06:59:07.076Z,0.21
2017-04-02T07:00:01.213Z,0.21
2017-04-02T07:00:55.070Z,0.20
2017-04-02T07:01:55.150Z,0.19
2017-04-02T07:02:56.185Z,0.20
2017-04-02T07:03:56.200Z,0.20
2017-04-02T07:04:45.236Z,0.20
2017-04-02T07:05:34.935Z,0.21
2017-04-02T07:06:34.309Z,0.21
2017-04-02T07:07:29.336Z,0.22
2017-04-02T07:08:24.496Z,0.22
2017-04-02T07:09:18.840Z,0.22
2017-04-02T07:10:18.482Z,0.23
2017-04-02T07:11:13.559Z,0.24
2017-04-02T07:12:08.585Z,0.23
2017-04-02T07:13:03.922Z,0.22
2017-04-02T07:13:52.630Z,0.22
2017-04-02T07:14:52.744Z,0.19
2017-04-02T07:15:47.730Z,0.20
2017-04-02T07:16:41.745Z,0.23
2017-04-02T07:17:41.814Z,0.22
2017-04-02T07:18:29.832Z,0.24
2017-04-02T07:19:29.907Z,0.23
2017-04-02T07:20:24.974Z,0.22
2017-04-02T07:21:13.939Z,0.22
2017-04-02T07:22:09.352Z,0.25
2017-04-02T07:23:10.060Z,0.26
2017-04-02T07:24:11.045Z,0.26
2017-04-02T07:25:11.116Z,0.27
2017-04-02T07:26:11.189Z,0.26
2017-04-02T07:27:05.252Z,0.25
2017-04-02T07:27:53.313Z,0.26
2017-04-02T07:28:41.274Z,0.26
2017-04-02T07:29:30.398Z,0.26
2017-04-02T07:30:24.463Z,0.26
2017-04-02T07:31:18.489Z,0.27
2017-04-02T07:32:08.211Z,0.27
2017-04-02T07:33:01.552Z,0.27
2017-04-02T07:33:56.616Z,0.27
2017-04-02T07:34:50.623Z,0.27
2017-04-02T07:35:40.361Z,0.25
2017-04-02T07:36:34.801Z,0.25
2017-04-02T07:37:28.825Z,0.25
2017-04-02T07:38:23.851Z,0.27
2017-04-02T07:39:11.867Z,0.29
2017-04-02T07:40:13.021Z,0.30
2017-04-02T07:41:13.097Z,0.28
2017-04-02T07:42:08.020Z,0.26
2017-04-02T07:43:08.050Z,0.26
2017-04-02T07:44:02.160Z,0.27
2017-04-02T07:44:57.168Z,0.27
2017-04-02T07:45:57.154Z,0.28
2017-04-02T07:46:57.216Z,0.27
2017-04-02T07:47:52.296Z,0.31
2017-04-02T07:48:47.885Z,0.32
2017-04-02T07:49:47.913Z,0.32
2017-04-02T07:50:41.983Z,0.31
2017-04-02T07:51:35.440Z,0.30
2017-04-02T07:52:24.454Z,0.29
2017-04-02T07:53:14.192Z,0.32
2017-04-02T07:54:14.217Z,0.32
2017-04-02T07:55:02.623Z,0.33
2017-04-02T07:55:56.691Z,0.34
2017-04-02T07:56:51.708Z,0.35
2017-04-02T07:57:51.802Z,0.35
2017-04-02T07:58:46.863Z,0.35
2017-04-02T07:59:41.830Z,0.36
2017-04-02T08:00:35.933Z,0.37
2017-04-02T08:01:23.977Z,0.37
2017-04-02T08:02:12.010Z,0.36
2017-04-02T08:03:06.036Z,0.38
2017-04-02T08:03:55.105Z,0.39
2017-04-02T08:04:49.133Z,0.39
2017-04-02T08:05:55.200Z,0.40
2017-04-02T08:06:50.208Z,0.40
2017-04-02T08:07:50.275Z,0.39
2017-04-02T08:08:44.707Z,0.40
2017-04-02T08:09:38.466Z,0.40
2017-04-02T08:10:33.460Z,0.40
2017-04-02T08:11:22.517Z,0.40
2017-04-02T08:12:11.553Z,0.40
2017-04-02T08:13:05.614Z,0.40
2017-04-02T08:14:05.647Z,0.40
2017-04-02T08:14:59.753Z,0.42
2017-04-02T08:15:53.758Z,0.44
2017-04-02T08:16:48.419Z,0.44
2017-04-02T08:17:42.881Z,0.44
2017-04-02T08:18:36.962Z,0.45
2017-04-02T08:19:31.978Z,0.46
2017-04-02T08:20:25.952Z,0.44
2017-04-02T08:21:21.051Z,0.45
2017-04-02T08:22:09.147Z,0.43
2017-04-02T08:23:03.127Z,0.44
2017-04-02T08:23:57.224Z,0.45
2017-04-02T08:24:45.226Z,0.43
2017-04-02T08:25:40.325Z,0.43
2017-04-02T08:26:29.367Z,0.40
2017-04-02T08:27:24.445Z,0.24
2017-04-02T08:28:13.477Z,0.23
2017-04-02T08:29:07.591Z,0.26
2017-04-02T08:30:07.571Z,0.41
2017-04-02T08:30:56.704Z,0.29
2017-04-02T08:31:51.338Z,0.24
2017-04-02T08:32:44.735Z,0.24
2017-04-02T08:33:38.778Z,0.25
2017-04-02T08:34:27.872Z,0.29
2017-04-02T08:35:22.643Z,0.50
2017-04-02T08:36:15.954Z,0.50
2017-04-02T08:37:15.993Z,0.52
2017-04-02T08:38:10.040Z,0.56
2017-04-02T08:39:10.068Z,0.57
2017-04-02T08:40:05.161Z,0.57
2017-04-02T08:40:59.213Z,0.56
2017-04-02T08:41:59.225Z,0.31
2017-04-02T08:42:53.824Z,0.33
2017-04-02T08:43:53.979Z,0.54
2017-04-02T08:44:47.350Z,0.45
2017-04-02T08:45:47.446Z,0.28
2017-04-02T08:46:41.473Z,0.28
2017-04-02T08:47:42.632Z,0.40
2017-04-02T08:48:36.553Z,0.28
2017-04-02T08:49:26.193Z,0.29
2017-04-02T08:50:26.253Z,0.56
2017-04-02T08:51:14.736Z,0.58
2017-04-02T08:52:09.805Z,0.41
2017-04-02T08:53:09.872Z,0.67
2017-04-02T08:53:58.027Z,0.63
2017-04-02T08:54:53.270Z,0.67
2017-04-02T08:55:41.964Z,0.64
2017-04-02T08:56:37.052Z,0.33
2017-04-02T08:57:25.778Z,0.30
2017-04-02T08:58:19.253Z,0.33
2017-04-02T08:59:13.207Z,0.40
2017-04-02T09:00:08.259Z,0.70
2017-04-02T09:01:03.174Z,0.67
2017-04-02T09:01:50.378Z,0.64
2017-04-02T09:02:45.433Z,0.70
2017-04-02T09:03:45.505Z,0.68
2017-04-02T09:04:34.997Z,0.71
2017-04-02T09:05:23.570Z,0.66
2017-04-02T09:06:23.676Z,0.72
2017-04-02T09:07:12.768Z,0.65
2017-04-02T09:08:02.429Z,0.52
2017-04-02T09:08:50.145Z,0.53
2017-04-02T09:09:38.836Z,0.36
2017-04-02T09:10:28.606Z,0.31
2017-04-02T09:11:17.018Z,0.46
2017-04-02T09:12:12.052Z,0.54
2017-04-02T09:13:12.129Z,0.42
2017-04-02T09:14:01.257Z,0.52
2017-04-02T09:15:00.820Z,0.18
2017-04-02T09:15:55.240Z,0.16
2017-04-02T09:16:49.318Z,0.14
2017-04-02T09:17:43.362Z,0.14
2017-04-02T09:18:33.173Z,0.14
2017-04-02T09:19:27.166Z,0.14
2017-04-02T09:20:26.571Z,0.14
2017-04-02T09:21:21.605Z,0.15
2017-04-02T09:22:10.674Z,0.15
2017-04-02T09:23:05.738Z,0.15
2017-04-02T09:24:00.469Z,0.14
2017-04-02T09:24:55.098Z,0.14
2017-04-02T09:25:42.806Z,0.13
2017-04-02T09:26:42.910Z,0.13
2017-04-02T09:27:32.480Z,0.13
2017-04-02T09:28:19.956Z,0.13
2017-04-02T09:29:08.039Z,0.14
2017-04-02T09:30:03.262Z,0.14
2017-04-02T09:31:03.874Z,0.29
2017-04-02T09:32:04.972Z,0.59
2017-04-02T09:32:53.246Z,0.19
2017-04-02T09:33:48.341Z,0.65
2017-04-02T09:34:42.337Z,0.64
2017-04-02T09:35:30.593Z,0.64
2017-04-02T09:36:24.435Z,0.65
2017-04-02T09:37:13.479Z,0.66
2017-04-02T09:38:13.517Z,0.24
2017-04-02T09:39:03.157Z,0.65
2017-04-02T09:39:57.635Z,0.24
2017-04-02T09:40:51.716Z,0.50
2017-04-02T09:41:40.731Z,0.64
2017-04-02T09:42:40.790Z,0.26
2017-04-02T09:43:35.504Z,0.62
2017-04-02T09:44:23.860Z,0.53
2017-04-02T09:45:12.983Z,0.24
2017-04-02T09:46:07.775Z,0.62
2017-04-02T09:47:01.038Z,0.44
2017-04-02T09:47:49.089Z,0.25
2017-04-02T09:48:49.103Z,0.64
2017-04-02T09:49:38.177Z,0.59
2017-04-02T09:50:33.259Z,0.23
2017-04-02T09:51:27.426Z,0.60
2017-04-02T09:52:15.343Z,0.23
2017-04-02T09:53:16.399Z,0.22
2017-04-02T09:54:16.477Z,0.70
2017-04-02T09:55:11.096Z,0.29
2017-04-02T09:56:10.478Z,0.75
2017-04-02T09:56:59.638Z,0.77
2017-04-02T09:57:53.625Z,0.78
2017-04-02T09:58:47.733Z,0.73
2017-04-02T09:59:41.782Z,0.31
2017-04-02T10:00:37.511Z,0.74
2017-04-02T10:01:24.862Z,0.72
2017-04-02T10:02:18.936Z,0.32
2017-04-02T10:03:07.691Z,0.33
2017-04-02T10:04:08.740Z,0.73
2017-04-02T10:05:02.273Z,0.31
2017-04-02T10:05:51.115Z,0.72
2017-04-02T10:06:46.210Z,0.74
2017-04-02T10:07:41.021Z,0.75
2017-04-02T10:08:34.324Z,0.80
2017-04-02T10:09:23.347Z,0.80
2017-04-02T10:10:17.408Z,0.81
2017-04-02T10:11:12.169Z,0.78
2017-04-02T10:12:12.230Z,0.70
2017-04-02T10:13:07.135Z,0.78
2017-04-02T10:14:00.593Z,0.76
2017-04-02T10:14:54.664Z,0.39
2017-04-02T10:15:48.716Z,0.32
2017-04-02T10:16:43.496Z,0.57
2017-04-02T10:17:37.848Z,0.75
2017-04-02T10:18:26.991Z,0.39
2017-04-02T10:19:15.437Z,0.58
2017-04-02T10:20:10.001Z,0.81
2017-04-02T10:21:10.089Z,0.84
2017-04-02T10:21:59.554Z,0.79
2017-04-02T10:22:59.186Z,0.33
2017-04-02T10:23:53.352Z,0.81
2017-04-02T10:24:42.388Z,0.81
2017-04-02T10:25:36.358Z,0.76
2017-04-02T10:26:25.375Z,0.76
2017-04-02T10:27:13.751Z,0.26
2017-04-02T10:28:02.612Z,0.25
2017-04-02T10:29:02.841Z,0.27
2017-04-02T10:29:56.675Z,0.61
2017-04-02T10:30:50.615Z,0.32
2017-04-02T10:31:45.249Z,0.71
2017-04-02T10:32:38.783Z,0.29
2017-04-02T10:33:32.855Z,0.25
2017-04-02T10:34:27.913Z,0.22
2017-04-02T10:35:21.985Z,0.22
2017-04-02T10:36:16.646Z,0.22
2017-04-02T10:37:11.072Z,0.20
2017-04-02T10:38:05.105Z,0.19
2017-04-02T10:39:05.180Z,0.19
2017-04-02T10:40:00.403Z,0.20
2017-04-02T10:40:54.215Z,0.30
2017-04-02T10:41:48.970Z,0.21
2017-04-02T10:42:37.463Z,0.22
2017-04-02T10:43:37.430Z,0.56
2017-04-02T10:44:26.515Z,0.28
2017-04-02T10:45:21.143Z,0.75
2017-04-02T10:46:21.053Z,0.69
2017-04-02T10:47:09.629Z,0.27
2017-04-02T10:47:58.701Z,0.22
2017-04-02T10:48:46.716Z,0.22
2017-04-02T10:49:40.854Z,0.25
2017-04-02T10:50:34.901Z,0.72
2017-04-02T10:51:29.940Z,0.74
2017-04-02T10:52:24.926Z,0.72
2017-04-02T10:53:24.986Z,0.29
2017-04-02T10:54:19.426Z,0.23
2017-04-02T10:55:14.081Z,0.24
2017-04-02T10:56:08.297Z,0.27
2017-04-02T10:57:02.186Z,0.60
2017-04-02T10:57:57.276Z,0.61
2017-04-02T10:58:51.899Z,0.35
2017-04-02T10:59:46.323Z,0.35
2017-04-02T11:00:41.423Z,0.40
2017-04-02T11:01:41.466Z,0.42
2017-04-02T11:02:35.510Z,0.46
2017-04-02T11:03:24.752Z,0.65
2017-04-02T11:04:25.635Z,0.35
2017-04-02T11:05:25.584Z,0.29
2017-04-02T11:06:14.803Z,0.28
2017-04-02T11:07:03.862Z,0.29
2017-04-02T11:08:03.829Z,0.31
2017-04-02T11:08:57.832Z,0.54
2017-04-02T11:09:46.971Z,0.71
2017-04-02T11:10:35.969Z,0.71
2017-04-02T11:11:29.982Z,0.72
2017-04-02T11:12:19.141Z,0.32
2017-04-02T11:13:13.121Z,0.41
2017-04-02T11:14:08.210Z,0.26
2017-04-02T11:14:57.955Z,0.26
2017-04-02T11:15:58.247Z,0.58
2017-04-02T11:16:47.334Z,0.70
2017-04-02T11:17:41.408Z,0.44
2017-04-02T11:18:41.443Z,0.72
2017-04-02T11:19:36.535Z,0.74
2017-04-02T11:20:36.532Z,0.75
2017-04-02T11:21:26.245Z,0.75
2017-04-02T11:22:26.235Z,0.62
2017-04-02T11:23:13.731Z,0.66
2017-04-02T11:24:02.759Z,0.37
2017-04-02T11:25:08.807Z,0.28
2017-04-02T11:25:57.479Z,0.45
2017-04-02T11:26:50.930Z,0.29
2017-04-02T11:27:38.972Z,0.20
2017-04-02T11:28:27.661Z,0.20
2017-04-02T11:29:21.087Z,0.20
2017-04-02T11:30:10.143Z,0.22
2017-04-02T11:30:59.804Z,0.60
2017-04-02T11:31:48.422Z,0.72
2017-04-02T11:32:48.279Z,0.72
2017-04-02T11:33:43.340Z,0.68
2017-04-02T11:34:37.432Z,0.71
2017-04-02T11:35:32.427Z,0.78
2017-04-02T11:36:21.467Z,0.76
2017-04-02T11:37:16.229Z,0.74
2017-04-02T11:38:09.616Z,0.72
2017-04-02T11:39:03.633Z,0.72
2017-04-02T11:39:57.757Z,0.71
2017-04-02T11:40:45.831Z,0.39
2017-04-02T11:41:40.850Z,0.71
2017-04-02T11:42:30.496Z,0.73
2017-04-02T11:43:25.239Z,0.74
2017-04-02T11:44:19.296Z,0.74
2017-04-02T11:45:13.049Z,0.28
2017-04-02T11:46:01.777Z,0.43
2017-04-02T11:47:01.830Z,0.22
2017-04-02T11:47:56.255Z,0.23
2017-04-02T11:48:44.276Z,0.24
2017-04-02T11:49:45.370Z,0.25
2017-04-02T11:50:34.732Z,0.57
2017-04-02T11:51:23.441Z,0.23
2017-04-02T11:52:18.487Z,0.26
2017-04-02T11:53:12.558Z,0.68
2017-04-02T11:54:07.604Z,0.64
2017-04-02T11:55:07.651Z,0.49
2017-04-02T11:56:02.710Z,0.70
2017-04-02T11:56:50.904Z,0.68
2017-04-02T11:57:39.844Z,0.28
2017-04-02T11:58:34.896Z,0.66
2017-04-02T11:59:29.931Z,0.68
2017-04-02T12:00:19.068Z,0.69
2017-04-02T12:01:13.058Z,0.70
2017-04-02T12:02:08.123Z,0.70
2017-04-02T12:02:57.145Z,0.42
2017-04-02T12:03:51.231Z,0.71
2017-04-02T12:04:45.262Z,0.71
2017-04-02T12:05:39.303Z,0.72
2017-04-02T12:06:27.811Z,0.24
2017-04-02T12:07:27.453Z,0.70
2017-04-02T12:08:15.488Z,0.72